Time;durP1;ratioP1;P1;durP2;ratioP2;P2;SDS_P1;SDS_P2;PMS_P1;PMS_P2;Temp;Humidity;BMP_temperature;BMP_pressure;BME280_temperature;BME280_humidity;BME280_pressure;Samples;Min_cycle;Max_cycle;Signal;HPM_P1;HPM_P2
2021/04/24 00:02:20;;;;;;;2.33;1.30;;;18.10;46.90;;;;;;5009408;28;20183;-79
2021/04/24 00:04:46;;;;;;;3.05;1.02;;;18.10;47.00;;;;;;4991311;28;20176;-78
2021/04/24 00:07:14;;;;;;;1.38;1.05;;;18.10;47.10;;;;;;4991378;28;20196;-77
2021/04/24 00:09:41;;;;;;;1.67;1.17;;;18.10;46.60;;;;;;4991812;28;20160;-77
2021/04/24 00:12:10;;;;;;;1.70;1.15;;;18.10;46.60;;;;;;5008218;28;20152;-78
2021/04/24 00:14:38;;;;;;;1.85;1.20;;;18.10;47.00;;;;;;5008642;28;20192;-78
2021/04/24 00:17:10;;;;;;;1.23;0.95;;;18.10;46.90;;;;;;5008526;28;20196;-78
2021/04/24 00:19:37;;;;;;;1.40;1.10;;;18.10;46.90;;;;;;5008532;28;20250;-78
2021/04/24 00:22:05;;;;;;;1.42;1.10;;;18.10;47.20;;;;;;4991355;28;20219;-78
2021/04/24 00:24:31;;;;;;;3.00;1.45;;;18.10;46.90;;;;;;5008125;28;20192;-78
2021/04/24 00:26:58;;;;;;;2.25;1.20;;;18.10;46.80;;;;;;5007970;28;20191;-78
2021/04/24 00:29:24;;;;;;;1.70;1.23;;;18.10;47.10;;;;;;5008287;28;20171;-78
2021/04/24 00:31:51;;;;;;;3.10;1.20;;;18.10;47.10;;;;;;5008457;28;20735;-78
2021/04/24 00:34:18;;;;;;;2.35;1.30;;;18.10;47.00;;;;;;4990730;28;20191;-78
2021/04/24 00:36:44;;;;;;;2.60;0.93;;;18.10;46.90;;;;;;5008614;28;20156;-78
2021/04/24 00:39:16;;;;;;;2.72;1.00;;;18.10;47.20;;;;;;5008048;28;20178;-78
2021/04/24 00:41:42;;;;;;;2.90;1.30;;;18.00;47.00;;;;;;5007692;28;20250;-78
2021/04/24 00:44:09;;;;;;;1.48;1.00;;;18.00;47.10;;;;;;4974807;28;20262;-78
2021/04/24 00:46:35;;;;;;;2.58;1.63;;;18.10;47.10;;;;;;5008024;28;20298;-78
2021/04/24 00:49:02;;;;;;;1.83;1.30;;;18.00;47.10;;;;;;5007695;28;20220;-78
2021/04/24 00:51:28;;;;;;;1.25;1.10;;;18.00;47.30;;;;;;5008230;28;20235;-78
2021/04/24 00:53:55;;;;;;;2.50;1.20;;;18.10;46.90;;;;;;4991249;28;20156;-78
2021/04/24 00:56:21;;;;;;;2.33;1.10;;;18.00;47.10;;;;;;5008538;28;20163;-78
2021/04/24 00:58:49;;;;;;;1.58;1.10;;;18.00;47.10;;;;;;4990872;28;20157;-78
2021/04/24 01:01:22;;;;;;;2.05;1.05;;;18.00;47.30;;;;;;5007657;28;20284;-78
2021/04/24 01:03:49;;;;;;;1.50;1.00;;;18.10;47.10;;;;;;4990321;28;20735;-78
2021/04/24 01:06:15;;;;;;;2.80;1.20;;;18.10;46.90;;;;;;4990192;28;20160;-78
2021/04/24 01:08:42;;;;;;;1.73;1.13;;;18.00;47.10;;;;;;5007859;28;20187;-78
2021/04/24 01:11:14;;;;;;;1.77;1.10;;;18.00;47.20;;;;;;5007117;28;20202;-78
2021/04/24 01:13:44;;;;;;;1.45;1.10;;;18.00;47.00;;;;;;4989723;28;20152;-77
2021/04/24 01:16:11;;;;;;;2.45;1.20;;;18.00;47.20;;;;;;4990483;28;20215;-78
2021/04/24 01:18:37;;;;;;;1.92;1.08;;;18.00;47.20;;;;;;5006689;28;20179;-77
2021/04/24 01:21:05;;;;;;;1.58;1.30;;;18.00;47.00;;;;;;4989822;28;20161;-77
2021/04/24 01:23:35;;;;;;;1.77;1.10;;;18.00;47.20;;;;;;5007303;28;20152;-78
2021/04/24 01:26:08;;;;;;;2.45;1.15;;;18.00;47.20;;;;;;4989528;28;20164;-78
2021/04/24 01:28:34;;;;;;;2.15;1.00;;;18.00;47.10;;;;;;5007167;28;20199;-78
2021/04/24 01:31:01;;;;;;;1.35;1.00;;;18.00;47.20;;;;;;5007263;28;20155;-78
2021/04/24 01:33:28;;;;;;;2.28;1.05;;;18.00;47.30;;;;;;5007420;28;20165;-77
2021/04/24 01:35:54;;;;;;;1.55;1.00;;;18.00;47.40;;;;;;5006396;28;20156;-78
2021/04/24 01:38:20;;;;;;;2.55;1.10;;;18.00;47.40;;;;;;5006379;28;20170;-78
2021/04/24 01:40:47;;;;;;;2.05;1.15;;;18.00;47.30;;;;;;5008540;28;20168;-78
2021/04/24 01:43:13;;;;;;;2.88;1.30;;;17.90;47.30;;;;;;5007827;28;20168;-78
2021/04/24 01:45:39;;;;;;;1.33;1.05;;;18.00;47.20;;;;;;5007484;28;20168;-78
2021/04/24 01:48:07;;;;;;;2.35;1.25;;;18.00;47.20;;;;;;5007399;28;20279;-78
2021/04/24 01:50:53;;;;;;;1.65;1.13;;;18.00;47.10;;;;;;4990251;28;20149;-78
2021/04/24 01:53:21;;;;;;;2.00;1.30;;;18.00;47.20;;;;;;4987514;28;20163;-78
2021/04/24 01:55:56;;;;;;;1.63;1.10;;;18.00;47.30;;;;;;5007229;28;20203;-78
2021/04/24 01:58:25;;;;;;;1.65;1.30;;;18.00;46.90;;;;;;5007961;28;20230;-77
2021/04/24 02:01:07;;;;;;;1.20;0.98;;;18.00;47.20;;;;;;5007681;28;20227;-78
2021/04/24 02:03:39;;;;;;;2.30;1.02;;;17.90;47.30;;;;;;5007351;28;20163;-78
2021/04/24 02:06:06;;;;;;;2.63;1.27;;;17.90;47.40;;;;;;5007589;28;20199;-77
2021/04/24 02:08:52;;;;;;;2.17;1.05;;;17.90;47.40;;;;;;5006268;28;20203;-78
2021/04/24 02:11:18;;;;;;;1.73;1.02;;;17.90;47.40;;;;;;5003878;28;20164;-78
2021/04/24 02:13:45;;;;;;;3.22;1.00;;;17.90;47.40;;;;;;4989243;28;20171;-78
2021/04/24 02:16:12;;;;;;;2.65;1.23;;;17.90;47.60;;;;;;5006152;28;20206;-78
2021/04/24 02:18:39;;;;;;;2.30;1.13;;;17.90;47.50;;;;;;5006240;28;20548;-78
2021/04/24 02:21:06;;;;;;;1.95;1.05;;;17.90;47.30;;;;;;5006381;28;20164;-78
2021/04/24 02:23:37;;;;;;;3.17;1.27;;;17.90;47.50;;;;;;4989385;28;20156;-78
2021/04/24 02:26:05;;;;;;;2.15;1.20;;;17.90;47.50;;;;;;5006361;28;20156;-78
2021/04/24 02:28:39;;;;;;;2.42;1.20;;;17.90;47.20;;;;;;4988583;28;20191;-78
2021/04/24 02:31:05;;;;;;;0.82;0.80;;;17.90;47.30;;;;;;5006097;28;20170;-78
2021/04/24 02:33:32;;;;;;;1.63;1.00;;;17.90;47.50;;;;;;4990991;28;20149;-78
2021/04/24 02:35:59;;;;;;;2.72;1.05;;;17.90;47.30;;;;;;5009518;28;20156;-78
2021/04/24 02:38:31;;;;;;;2.92;1.25;;;17.90;47.50;;;;;;5009901;28;20156;-79
2021/04/24 02:40:58;;;;;;;2.33;1.35;;;17.90;47.50;;;;;;4992733;28;20168;-78
2021/04/24 02:43:24;;;;;;;3.88;1.20;;;17.90;47.40;;;;;;4977048;28;20184;-78
2021/04/24 02:45:51;;;;;;;1.73;1.13;;;17.90;47.40;;;;;;5010696;28;20176;-78
2021/04/24 02:48:18;;;;;;;2.83;1.00;;;17.90;47.60;;;;;;5010071;28;20227;-78
2021/04/24 02:50:45;;;;;;;1.85;1.10;;;17.90;47.60;;;;;;4992325;28;20156;-78
2021/04/24 02:53:11;;;;;;;1.67;1.17;;;17.90;47.50;;;;;;5008996;28;20155;-78
2021/04/24 02:55:37;;;;;;;2.70;1.00;;;17.90;47.60;;;;;;5010090;28;20176;-78
2021/04/24 02:58:03;;;;;;;3.72;1.77;;;17.90;47.40;;;;;;5010063;28;20192;-77
2021/04/24 03:00:30;;;;;;;1.60;1.00;;;17.90;47.10;;;;;;5009405;28;20223;-78
2021/04/24 03:03:09;;;;;;;3.95;1.20;;;17.80;47.30;;;;;;5009577;28;20627;-78
2021/04/24 03:05:35;;;;;;;1.55;0.90;;;17.80;47.40;;;;;;4991920;28;20168;-78
2021/04/24 03:08:02;;;;;;;2.25;1.00;;;17.90;47.30;;;;;;5009396;28;20188;-78
2021/04/24 03:10:29;;;;;;;2.08;1.15;;;17.90;47.30;;;;;;5009967;28;20623;-78
2021/04/24 03:12:56;;;;;;;1.58;1.00;;;17.90;47.30;;;;;;5008988;28;20164;-79
2021/04/24 03:15:23;;;;;;;2.80;1.00;;;17.80;47.40;;;;;;4993105;28;20160;-78
2021/04/24 03:17:50;;;;;;;1.88;1.10;;;17.80;47.30;;;;;;5008991;28;20179;-78
2021/04/24 03:20:18;;;;;;;2.38;1.20;;;17.80;47.20;;;;;;4992929;28;20164;-78
2021/04/24 03:22:44;;;;;;;4.28;1.10;;;17.80;47.30;;;;;;4992208;28;20207;-78
2021/04/24 03:25:19;;;;;;;3.92;1.40;;;17.80;47.20;;;;;;4991766;28;20161;-78
2021/04/24 03:27:45;;;;;;;1.08;0.85;;;17.80;47.10;;;;;;4992515;28;20245;-78
2021/04/24 03:30:21;;;;;;;2.65;1.00;;;17.80;47.40;;;;;;4991347;28;20222;-78
2021/04/24 03:32:47;;;;;;;1.48;1.10;;;17.80;47.20;;;;;;5009213;28;20156;-78
2021/04/24 03:35:13;;;;;;;1.98;1.13;;;17.80;47.00;;;;;;4992419;28;20235;-78
2021/04/24 03:37:41;;;;;;;1.20;0.98;;;17.80;47.10;;;;;;5009074;28;20187;-77
2021/04/24 03:40:09;;;;;;;0.98;0.73;;;17.80;47.00;;;;;;5009837;28;20166;-78
2021/04/24 03:42:36;;;;;;;2.28;1.10;;;17.80;46.90;;;;;;5009737;28;20180;-78
2021/04/24 03:45:02;;;;;;;1.38;0.90;;;17.80;47.10;;;;;;5009640;28;20161;-78
2021/04/24 03:47:30;;;;;;;1.63;1.17;;;17.80;47.10;;;;;;5009440;28;20184;-78
2021/04/24 03:49:58;;;;;;;2.22;1.08;;;17.80;47.10;;;;;;5009447;28;20200;-78
2021/04/24 03:52:24;;;;;;;2.28;1.00;;;17.80;47.00;;;;;;5009195;28;20152;-78
2021/04/24 03:54:51;;;;;;;2.08;0.98;;;17.80;47.00;;;;;;4992446;28;20196;-78
2021/04/24 03:57:26;;;;;;;1.65;1.10;;;17.80;47.00;;;;;;5009371;28;20168;-78
2021/04/24 03:59:51;;;;;;;2.00;1.02;;;17.90;47.20;;;;;;5009099;28;20223;-78
2021/04/24 04:02:18;;;;;;;1.55;0.98;;;17.80;47.10;;;;;;5009176;28;20172;-78
2021/04/24 04:04:45;;;;;;;2.03;1.10;;;17.80;47.20;;;;;;4992408;28;20172;-78
2021/04/24 04:07:10;;;;;;;1.80;1.15;;;17.80;47.10;;;;;;5009293;28;20191;-77
2021/04/24 04:09:37;;;;;;;1.92;1.13;;;17.80;46.90;;;;;;5009172;28;20210;-77
2021/04/24 04:12:07;;;;;;;2.28;1.10;;;17.80;46.80;;;;;;5008974;28;20215;-78
2021/04/24 04:14:39;;;;;;;2.88;1.20;;;17.80;46.90;;;;;;4992045;28;20172;-78
2021/04/24 04:17:05;;;;;;;2.83;1.20;;;17.80;47.00;;;;;;5008818;28;20608;-78
2021/04/24 04:19:32;;;;;;;0.98;0.85;;;17.80;47.00;;;;;;5009186;28;20616;-78
2021/04/24 04:21:58;;;;;;;1.70;0.95;;;17.80;46.80;;;;;;5008889;28;20165;-78
2021/04/24 04:24:26;;;;;;;1.58;0.95;;;17.80;46.80;;;;;;4992017;28;20157;-78
2021/04/24 04:27:01;;;;;;;1.27;0.90;;;17.90;46.80;;;;;;4992048;28;20192;-77
2021/04/24 04:29:27;;;;;;;1.13;0.90;;;17.90;46.70;;;;;;5009122;28;20147;-78
2021/04/24 04:32:01;;;;;;;1.42;1.00;;;17.90;46.70;;;;;;5009196;28;20167;-78
2021/04/24 04:34:28;;;;;;;1.60;1.00;;;17.90;46.70;;;;;;5009019;28;20212;-78
2021/04/24 04:36:56;;;;;;;2.55;1.10;;;17.90;46.50;;;;;;5009628;28;20249;-79
2021/04/24 04:39:22;;;;;;;1.38;1.17;;;18.00;46.40;;;;;;5008607;28;20164;-78
2021/04/24 04:41:50;;;;;;;1.48;1.05;;;18.00;46.30;;;;;;4975268;28;20172;-77
2021/04/24 04:44:16;;;;;;;1.25;1.00;;;18.00;46.50;;;;;;5008952;28;20547;-78
2021/04/24 04:46:43;;;;;;;1.48;1.30;;;18.00;46.20;;;;;;4990682;28;20199;-78
2021/04/24 04:49:09;;;;;;;1.70;1.00;;;18.00;46.40;;;;;;5008935;28;20178;-78
2021/04/24 04:51:37;;;;;;;1.92;1.17;;;18.00;46.30;;;;;;5008466;28;20531;-78
2021/04/24 04:54:03;;;;;;;2.00;0.88;;;18.00;46.10;;;;;;4991627;28;20207;-78
2021/04/24 04:56:30;;;;;;;1.95;0.90;;;18.00;46.30;;;;;;5007371;28;20156;-78
2021/04/24 04:58:57;;;;;;;2.38;1.10;;;18.00;46.20;;;;;;5008675;28;20172;-78
2021/04/24 05:01:26;;;;;;;2.58;0.90;;;18.00;45.90;;;;;;4991144;28;20219;-77
2021/04/24 05:03:53;;;;;;;1.48;0.90;;;18.00;46.00;;;;;;5008296;28;20171;-78
2021/04/24 05:06:19;;;;;;;1.50;1.10;;;18.10;45.70;;;;;;5008616;28;20234;-78
2021/04/24 05:08:52;;;;;;;1.50;1.02;;;18.10;46.00;;;;;;5007987;28;20196;-77
2021/04/24 05:11:22;;;;;;;2.25;0.98;;;18.10;45.70;;;;;;4990902;28;20182;-78
2021/04/24 05:13:49;;;;;;;1.75;1.20;;;18.10;45.60;;;;;;5007715;28;20184;-77
2021/04/24 05:16:21;;;;;;;1.75;1.00;;;18.20;45.60;;;;;;5008240;28;20178;-78
2021/04/24 05:18:48;;;;;;;1.65;1.00;;;18.10;45.70;;;;;;4991160;28;20164;-77
2021/04/24 05:21:15;;;;;;;1.88;1.08;;;18.20;45.40;;;;;;5007993;28;20215;-78
2021/04/24 05:23:47;;;;;;;1.55;0.90;;;18.20;45.50;;;;;;4990737;28;20198;-78
2021/04/24 05:26:21;;;;;;;2.28;0.98;;;18.20;45.40;;;;;;5007852;28;20167;-78
2021/04/24 05:28:47;;;;;;;2.55;1.10;;;18.20;45.30;;;;;;5007541;28;20248;-78
2021/04/24 05:31:14;;;;;;;1.70;1.10;;;18.20;45.30;;;;;;4991387;28;20156;-78
2021/04/24 05:33:40;;;;;;;2.10;1.10;;;18.30;45.30;;;;;;5008037;28;20180;-78
2021/04/24 05:36:12;;;;;;;1.25;0.85;;;18.20;45.50;;;;;;5007427;28;20167;-78
2021/04/24 05:38:50;;;;;;;3.22;1.20;;;18.20;45.30;;;;;;4991677;28;20187;-78
2021/04/24 05:41:21;;;;;;;1.30;0.93;;;18.20;45.40;;;;;;5008161;28;20175;-78
2021/04/24 05:43:54;;;;;;;1.17;0.98;;;18.20;45.40;;;;;;4990833;28;20195;-78
2021/04/24 05:46:29;;;;;;;1.08;0.98;;;18.20;45.30;;;;;;5007422;28;20234;-78
2021/04/24 05:48:56;;;;;;;1.15;1.00;;;18.20;45.30;;;;;;5007440;28;20179;-78
2021/04/24 05:51:22;;;;;;;1.48;0.90;;;18.20;45.20;;;;;;4990246;28;20251;-78
2021/04/24 05:53:50;;;;;;;2.15;1.10;;;18.30;45.00;;;;;;5006169;28;20148;-77
2021/04/24 05:56:19;;;;;;;1.60;1.20;;;18.30;45.20;;;;;;4990054;28;20188;-78
2021/04/24 05:58:52;;;;;;;0.77;0.77;;;18.30;45.30;;;;;;4989936;28;20195;-78
2021/04/24 06:01:21;;;;;;;1.48;0.90;;;18.30;45.30;;;;;;4973660;28;20239;-78
2021/04/24 06:03:51;;;;;;;1.00;0.90;;;18.30;45.00;;;;;;4989100;28;20665;-78
2021/04/24 06:06:18;;;;;;;1.70;1.00;;;18.30;45.30;;;;;;4971061;28;20765;-78
2021/04/24 06:08:52;;;;;;;1.80;1.02;;;18.30;45.20;;;;;;5001976;28;20188;-78
2021/04/24 06:11:19;;;;;;;1.52;0.88;;;18.20;45.30;;;;;;4985541;28;20156;-78
2021/04/24 06:13:48;;;;;;;1.50;1.00;;;18.20;45.40;;;;;;4985548;28;20160;-78
2021/04/24 06:16:14;;;;;;;1.73;0.70;;;18.20;45.20;;;;;;5002763;28;20194;-78
2021/04/24 06:18:42;;;;;;;1.60;1.08;;;18.20;45.10;;;;;;5003224;28;20183;-78
2021/04/24 06:21:08;;;;;;;2.58;1.10;;;18.20;45.20;;;;;;5003102;28;20164;-78
2021/04/24 06:23:34;;;;;;;2.50;1.00;;;18.20;45.00;;;;;;4986248;28;20531;-78
2021/04/24 06:26:01;;;;;;;1.33;1.00;;;18.20;44.70;;;;;;5002981;28;20182;-78
2021/04/24 06:28:26;;;;;;;3.00;1.00;;;18.30;44.90;;;;;;5003046;28;20196;-77
2021/04/24 06:31:01;;;;;;;0.95;0.80;;;18.30;44.90;;;;;;5004803;28;20168;-77
2021/04/24 06:33:28;;;;;;;3.15;1.23;;;18.30;44.70;;;;;;5002979;28;20165;-77
2021/04/24 06:35:55;;;;;;;1.25;1.02;;;18.30;45.10;;;;;;5002925;28;20247;-77
2021/04/24 06:38:24;;;;;;;2.03;1.00;;;18.30;44.90;;;;;;4986459;28;20222;-77
2021/04/24 06:40:51;;;;;;;1.70;0.93;;;18.30;44.90;;;;;;5004531;28;20156;-77
2021/04/24 06:43:18;;;;;;;1.10;1.00;;;18.30;44.90;;;;;;4986583;28;20273;-77
2021/04/24 06:45:44;;;;;;;1.33;1.02;;;18.20;45.00;;;;;;5002017;28;20624;-77
2021/04/24 06:48:12;;;;;;;1.75;0.90;;;18.20;45.00;;;;;;4963330;28;20263;-77
2021/04/24 06:50:37;;;;;;;1.33;1.05;;;18.30;44.50;;;;;;4979469;28;20196;-77
2021/04/24 06:53:04;;;;;;;1.42;0.90;;;18.30;44.90;;;;;;4976784;28;20172;-77
2021/04/24 06:55:30;;;;;;;1.35;1.00;;;18.30;45.00;;;;;;4993742;28;20228;-77
2021/04/24 06:57:57;;;;;;;1.15;1.00;;;18.30;44.70;;;;;;4986387;28;20172;-78
2021/04/24 07:00:23;;;;;;;1.75;0.90;;;18.30;44.80;;;;;;5003495;28;20212;-77
2021/04/24 07:02:49;;;;;;;1.65;0.90;;;18.20;45.20;;;;;;4986584;28;20544;-77
2021/04/24 07:05:15;;;;;;;1.73;0.98;;;18.20;45.10;;;;;;4987184;28;20167;-77
2021/04/24 07:07:41;;;;;;;1.00;0.90;;;18.10;45.40;;;;;;4986545;28;20196;-77
2021/04/24 07:10:07;;;;;;;1.48;1.05;;;18.20;45.20;;;;;;4986142;28;20160;-77
2021/04/24 07:12:33;;;;;;;2.22;1.02;;;18.10;45.20;;;;;;4986231;28;20184;-77
2021/04/24 07:14:59;;;;;;;1.23;0.70;;;18.10;45.40;;;;;;4985576;28;20172;-77
2021/04/24 07:17:25;;;;;;;1.75;1.00;;;18.10;45.30;;;;;;5003140;28;20172;-77
2021/04/24 07:19:54;;;;;;;2.00;1.00;;;18.10;45.10;;;;;;5005631;28;20503;-77
2021/04/24 07:22:21;;;;;;;1.00;0.90;;;18.10;45.30;;;;;;4989282;28;20157;-77
2021/04/24 07:24:48;;;;;;;2.53;1.00;;;18.10;45.30;;;;;;5006824;28;20698;-77
2021/04/24 07:27:14;;;;;;;1.17;1.08;;;18.10;45.40;;;;;;4989008;28;20643;-77
2021/04/24 07:29:41;;;;;;;1.50;0.90;;;18.10;45.50;;;;;;4989131;28;20160;-77
2021/04/24 07:32:07;;;;;;;1.45;0.85;;;18.00;45.50;;;;;;5005577;28;20670;-77
2021/04/24 07:34:34;;;;;;;1.60;0.90;;;18.10;45.30;;;;;;5006455;28;20164;-77
2021/04/24 07:37:00;;;;;;;1.10;0.82;;;18.00;45.50;;;;;;5006100;28;20168;-78
2021/04/24 07:39:27;;;;;;;1.30;1.10;;;18.00;45.30;;;;;;5006291;28;20168;-77
2021/04/24 07:41:53;;;;;;;1.88;0.98;;;18.00;45.70;;;;;;5006077;28;20172;-77
2021/04/24 07:44:28;;;;;;;2.15;0.95;;;18.00;45.40;;;;;;5005494;28;20171;-78
2021/04/24 07:46:54;;;;;;;0.80;0.80;;;18.10;45.40;;;;;;5007589;28;20219;-77
2021/04/24 07:49:24;;;;;;;1.08;0.98;;;18.00;45.40;;;;;;5007947;28;20156;-77
2021/04/24 07:51:52;;;;;;;1.80;1.00;;;18.00;45.70;;;;;;5008107;28;20231;-77
2021/04/24 07:54:18;;;;;;;2.67;1.13;;;18.00;45.60;;;;;;5008682;28;20152;-77
2021/04/24 07:56:44;;;;;;;1.13;0.80;;;18.00;45.60;;;;;;5008880;28;20160;-78
2021/04/24 07:59:12;;;;;;;1.52;0.90;;;18.00;45.40;;;;;;5008294;28;20615;-77
2021/04/24 08:01:40;;;;;;;1.42;1.00;;;18.10;45.00;;;;;;4974095;28;20231;-77
2021/04/24 08:04:06;;;;;;;1.25;1.00;;;18.10;44.90;;;;;;5006972;28;20183;-77
2021/04/24 08:06:33;;;;;;;1.23;0.90;;;18.10;44.50;;;;;;4990145;28;20235;-77
2021/04/24 08:09:00;;;;;;;0.85;0.82;;;18.10;44.30;;;;;;5006368;28;20176;-77
2021/04/24 08:11:27;;;;;;;1.05;0.85;;;18.00;44.80;;;;;;5007033;28;20516;-78
2021/04/24 08:13:54;;;;;;;0.93;0.73;;;18.00;42.30;;;;;;4974406;28;20168;-77
2021/04/24 08:16:20;;;;;;;0.80;0.80;;;18.00;43.80;;;;;;5006310;28;20216;-77
2021/04/24 08:18:46;;;;;;;1.35;0.80;;;18.00;42.10;;;;;;5008314;28;20183;-77
2021/04/24 08:21:12;;;;;;;1.88;0.90;;;18.00;42.90;;;;;;4990459;28;20221;-77
2021/04/24 08:23:37;;;;;;;1.17;0.70;;;17.90;41.60;;;;;;5006883;28;20160;-77
2021/04/24 08:26:03;;;;;;;1.38;0.82;;;17.90;40.60;;;;;;5006502;28;20164;-76
2021/04/24 08:28:28;;;;;;;1.15;0.80;;;17.90;41.30;;;;;;4990174;28;20195;-76
2021/04/24 08:30:55;;;;;;;1.50;0.82;;;18.00;41.20;;;;;;4990041;28;20156;-77
2021/04/24 08:33:21;;;;;;;1.80;0.90;;;18.00;39.30;;;;;;4963241;28;20651;-76
2021/04/24 08:35:47;;;;;;;1.05;0.80;;;18.10;38.20;;;;;;4971215;28;20185;-77
2021/04/24 08:38:13;;;;;;;3.63;0.90;;;18.00;40.70;;;;;;4988552;28;20219;-77
2021/04/24 08:40:44;;;;;;;1.25;0.75;;;18.00;40.80;;;;;;4988413;28;20169;-76
2021/04/24 08:43:10;;;;;;;3.95;0.95;;;18.00;43.30;;;;;;4992737;28;20160;-77
2021/04/24 08:45:37;;;;;;;3.35;0.90;;;18.00;42.70;;;;;;4972158;28;20238;-76
2021/04/24 08:48:02;;;;;;;2.17;0.93;;;18.00;42.90;;;;;;4988648;28;20210;-77
2021/04/24 08:50:29;;;;;;;2.40;1.00;;;18.00;43.80;;;;;;5004654;28;20160;-77
2021/04/24 08:52:55;;;;;;;2.28;1.20;;;18.00;43.70;;;;;;4989014;28;20167;-77
2021/04/24 08:55:26;;;;;;;1.67;0.80;;;18.00;44.20;;;;;;4988846;28;20611;-77
2021/04/24 08:57:52;;;;;;;2.88;1.05;;;18.00;44.20;;;;;;4997442;28;20161;-78
2021/04/24 09:00:21;;;;;;;2.97;1.00;;;18.00;44.20;;;;;;4995088;28;20249;-77
2021/04/24 09:02:47;;;;;;;1.77;0.80;;;18.10;43.30;;;;;;4986157;28;20219;-77
2021/04/24 09:05:19;;;;;;;3.22;1.35;;;18.10;43.20;;;;;;4985167;28;20193;-78
2021/04/24 09:07:48;;;;;;;1.98;0.88;;;18.20;43.70;;;;;;5003007;28;20188;-77
2021/04/24 09:10:16;;;;;;;9.80;1.10;;;18.10;44.10;;;;;;4971573;28;20198;-77
2021/04/24 09:12:46;;;;;;;2.67;1.00;;;18.10;42.50;;;;;;5004128;28;20152;-76
2021/04/24 09:15:32;;;;;;;3.42;0.93;;;18.10;43.90;;;;;;5004859;28;20247;-76
2021/04/24 09:17:58;;;;;;;3.10;1.00;;;18.10;43.50;;;;;;4983641;28;20179;-76
2021/04/24 09:20:27;;;;;;;3.33;1.05;;;18.10;43.70;;;;;;4987131;28;20276;-76
2021/04/24 09:22:56;;;;;;;2.33;0.90;;;18.10;44.40;;;;;;4984575;28;20215;-78
2021/04/24 09:25:30;;;;;;;3.47;1.02;;;18.10;44.40;;;;;;5003329;28;20193;-77
2021/04/24 09:27:57;;;;;;;4.00;0.90;;;18.10;44.20;;;;;;5003257;28;20191;-77
2021/04/24 09:30:27;;;;;;;6.03;1.00;;;18.20;43.70;;;;;;4966399;28;20185;-77
2021/04/24 09:32:54;;;;;;;2.33;1.00;;;18.20;43.90;;;;;;4990786;28;20766;-78
2021/04/24 09:35:21;;;;;;;1.65;0.80;;;18.10;43.40;;;;;;4969664;28;20149;-77
2021/04/24 09:38:01;;;;;;;3.20;1.17;;;18.10;43.40;;;;;;4970198;28;20612;-78
2021/04/24 09:40:40;;;;;;;2.80;0.95;;;18.10;43.20;;;;;;5004045;28;20168;-77
2021/04/24 09:43:07;;;;;;;1.88;0.98;;;18.10;43.60;;;;;;5003124;28;20177;-77
2021/04/24 09:45:40;;;;;;;3.97;1.10;;;18.00;44.20;;;;;;4985132;28;20588;-78
2021/04/24 09:48:22;;;;;;;6.60;1.42;;;18.00;43.20;;;;;;5003567;28;20219;-78
2021/04/24 09:50:55;;;;;;;1.45;1.02;;;18.00;43.50;;;;;;4986556;28;20149;-79
2021/04/24 09:53:26;;;;;;;4.03;0.98;;;18.10;43.60;;;;;;5002195;28;20255;-78
2021/04/24 09:55:53;;;;;;;2.65;1.10;;;18.10;43.60;;;;;;5002941;28;20164;-78
2021/04/24 09:58:35;;;;;;;3.33;1.20;;;18.10;43.90;;;;;;4985856;28;20191;-81
2021/04/24 10:01:32;;;;;;;2.67;1.30;;;18.10;43.70;;;;;;4950572;28;20224;-80
2021/04/24 10:04:48;;;;;;;5.47;1.65;;;18.10;44.00;;;;;;4951656;28;20188;-81
2021/04/24 10:07:15;;;;;;;3.30;1.30;;;18.10;42.90;;;;;;4912493;29;20218;-79
2021/04/24 10:09:43;;;;;;;5.03;1.55;;;18.20;43.00;;;;;;4902618;29;20183;-78
2021/04/24 10:12:10;;;;;;;6.55;1.58;;;18.20;43.20;;;;;;4908717;29;20197;-77
2021/04/24 10:14:56;;;;;;;2.35;1.40;;;18.30;43.60;;;;;;4908906;29;20178;-80
2021/04/24 10:17:22;;;;;;;2.38;1.40;;;18.30;43.30;;;;;;4906788;29;20298;-78
2021/04/24 10:20:00;;;;;;;7.22;1.23;;;18.30;43.60;;;;;;4907467;29;20670;-77
2021/04/24 10:22:40;;;;;;;2.30;1.23;;;18.30;44.20;;;;;;4910648;29;20215;-78
2021/04/24 10:25:09;;;;;;;2.75;1.10;;;18.30;44.10;;;;;;4910165;29;20269;-79
2021/04/24 10:27:40;;;;;;;2.47;1.20;;;18.20;44.60;;;;;;4926280;29;20198;-80
2021/04/24 10:30:09;;;;;;;4.05;1.30;;;18.20;44.10;;;;;;4924673;29;20186;-79
2021/04/24 10:32:35;;;;;;;4.30;1.42;;;18.20;44.50;;;;;;4924225;29;20202;-79
2021/04/24 10:35:04;;;;;;;5.05;1.33;;;18.20;43.80;;;;;;4894595;29;20174;-78
2021/04/24 10:37:31;;;;;;;5.50;1.50;;;18.20;44.10;;;;;;4909697;29;20190;-78
2021/04/24 10:40:06;;;;;;;3.30;1.38;;;18.20;44.20;;;;;;4907214;29;20210;-78
2021/04/24 10:42:32;;;;;;;6.30;1.50;;;18.20;43.90;;;;;;4925526;29;20174;-79
2021/04/24 10:45:01;;;;;;;7.53;1.98;;;18.20;44.30;;;;;;4986697;28;20224;-79
2021/04/24 10:47:53;;;;;;;5.60;1.50;;;18.20;43.50;;;;;;5002892;28;20218;-77
2021/04/24 10:50:40;;;;;;;4.38;1.40;;;18.20;44.10;;;;;;5002975;28;20211;-76
2021/04/24 10:53:22;;;;;;;3.10;1.30;;;18.20;44.70;;;;;;5002502;28;20195;-77
2021/04/24 10:55:49;;;;;;;6.40;1.50;;;18.20;43.90;;;;;;5006277;28;20192;-77
2021/04/24 10:58:35;;;;;;;5.47;1.30;;;18.30;44.20;;;;;;4988863;28;20160;-77
2021/04/24 11:01:02;;;;;;;5.07;1.27;;;18.20;43.90;;;;;;4985609;28;20285;-78
2021/04/24 11:03:42;;;;;;;2.05;1.10;;;18.20;44.70;;;;;;4989590;28;20553;-78
2021/04/24 11:06:30;;;;;;;6.60;1.20;;;18.20;44.80;;;;;;4988758;28;20160;-79
2021/04/24 11:09:26;;;;;;;3.35;1.20;;;18.20;44.70;;;;;;5006610;28;20207;-78
2021/04/24 11:11:52;;;;;;;6.80;1.48;;;18.20;44.80;;;;;;5005862;28;20156;-78
2021/04/24 11:14:22;;;;;;;4.07;1.50;;;18.20;44.80;;;;;;4988213;28;20176;-77
2021/04/24 11:16:48;;;;;;;4.68;1.20;;;18.20;45.10;;;;;;4987378;28;20275;-77
2021/04/24 11:19:59;;;;;;;6.75;1.35;;;18.30;45.40;;;;;;4987839;28;20240;-78
2021/04/24 11:22:42;;;;;;;7.53;1.50;;;18.30;45.40;;;;;;5003553;28;20195;-78
2021/04/24 11:25:23;;;;;;;4.70;1.45;;;18.20;43.70;;;;;;5004683;28;20156;-78
2021/04/24 11:28:11;;;;;;;3.72;1.40;;;18.30;44.70;;;;;;5006099;28;20188;-78
2021/04/24 11:30:59;;;;;;;5.15;1.50;;;18.30;44.90;;;;;;5005233;28;20228;-78
2021/04/24 11:33:42;;;;;;;6.45;1.63;;;18.30;44.20;;;;;;4987568;28;20176;-77
2021/04/24 11:36:15;;;;;;;10.40;1.67;;;18.30;44.50;;;;;;5005120;28;20159;-77
2021/04/24 11:38:57;;;;;;;4.50;1.30;;;18.30;44.10;;;;;;4987842;28;20191;-77
2021/04/24 11:41:37;;;;;;;3.03;1.05;;;18.30;43.60;;;;;;5004808;28;20243;-77
2021/04/24 11:44:18;;;;;;;6.07;1.33;;;18.40;43.90;;;;;;4972149;28;20172;-77
2021/04/24 11:46:45;;;;;;;4.90;1.30;;;18.40;43.90;;;;;;5006225;28;20239;-77
2021/04/24 11:49:14;;;;;;;3.75;1.27;;;18.40;44.00;;;;;;5005543;28;20228;-77
2021/04/24 11:51:45;;;;;;;5.35;1.50;;;18.40;44.80;;;;;;4986837;28;20152;-77
2021/04/24 11:54:14;;;;;;;4.25;1.50;;;18.30;44.10;;;;;;5005977;28;20220;-78
2021/04/24 11:56:44;;;;;;;5.53;1.67;;;18.30;43.20;;;;;;5006558;28;20163;-76
2021/04/24 11:59:10;;;;;;;5.38;1.55;;;18.40;43.50;;;;;;4989377;28;20168;-78
2021/04/24 12:01:39;;;;;;;5.60;1.33;;;18.40;42.80;;;;;;4969848;28;20306;-76
2021/04/24 12:04:10;;;;;;;2.92;1.10;;;18.40;42.60;;;;;;4986226;28;20251;-81
2021/04/24 12:06:42;;;;;;;5.70;1.73;;;18.40;44.40;;;;;;4984875;28;20221;-78
2021/04/24 12:09:13;;;;;;;7.57;1.40;;;18.40;42.80;;;;;;5004068;28;20605;-77
2021/04/24 12:11:40;;;;;;;3.70;1.40;;;18.40;43.70;;;;;;4987148;28;20160;-77
2021/04/24 12:14:18;;;;;;;6.53;1.60;;;18.40;43.00;;;;;;4988132;28;20200;-76
2021/04/24 12:16:46;;;;;;;4.18;1.25;;;18.40;44.40;;;;;;5006060;28;20200;-77
2021/04/24 12:19:23;;;;;;;3.42;1.50;;;18.40;44.30;;;;;;5005401;28;20157;-77
2021/04/24 12:22:14;;;;;;;4.25;1.70;;;18.40;44.20;;;;;;4986931;28;20214;-77
2021/04/24 12:24:56;;;;;;;3.15;1.75;;;18.40;45.40;;;;;;5004730;28;20148;-77
2021/04/24 12:27:28;;;;;;;3.47;1.42;;;18.40;45.70;;;;;;5004795;28;20206;-77
2021/04/24 12:29:55;;;;;;;5.63;1.58;;;18.40;45.30;;;;;;5004801;28;20159;-77
2021/04/24 12:32:23;;;;;;;4.40;1.50;;;18.40;45.20;;;;;;4988830;28;20152;-77
2021/04/24 12:34:49;;;;;;;7.22;1.40;;;18.30;45.30;;;;;;4987532;28;20152;-75
2021/04/24 12:37:35;;;;;;;9.60;1.60;;;18.40;45.10;;;;;;5006058;28;20604;-76
2021/04/24 12:40:09;;;;;;;4.75;1.33;;;18.40;44.90;;;;;;4986038;28;20172;-77
2021/04/24 12:42:36;;;;;;;4.65;1.70;;;18.50;44.70;;;;;;5004041;28;20175;-77
2021/04/24 12:45:24;;;;;;;7.50;1.50;;;18.40;44.30;;;;;;5003788;28;20172;-77
2021/04/24 12:47:53;;;;;;;5.57;1.40;;;18.50;43.70;;;;;;4983762;28;20203;-77
2021/04/24 12:50:37;;;;;;;5.03;1.73;;;18.50;44.00;;;;;;4970731;28;20168;-77
2021/04/24 12:53:11;;;;;;;4.78;1.60;;;18.50;44.60;;;;;;5005357;28;20525;-76
2021/04/24 12:55:42;;;;;;;7.43;1.45;;;18.50;44.80;;;;;;4985894;28;20152;-77
2021/04/24 12:58:17;;;;;;;4.50;1.55;;;18.50;44.80;;;;;;4984561;28;20183;-77
2021/04/24 13:00:47;;;;;;;4.22;1.40;;;18.50;44.20;;;;;;4985001;28;20215;-77
2021/04/24 13:03:46;;;;;;;3.70;1.70;;;18.50;44.30;;;;;;4970128;28;20196;-76